createdAt,value
2022-11-15T00:00:36.896Z,7.95
2022-11-15T00:01:39.502Z,8.88
2022-11-15T00:02:42.203Z,8.70
2022-11-15T00:03:43.863Z,7.78
2022-11-15T00:04:46.576Z,8.60
2022-11-15T00:05:48.320Z,7.30
2022-11-15T00:06:50.885Z,7.63
2022-11-15T00:07:56.386Z,8.85
2022-11-15T00:08:59.946Z,8.55
2022-11-15T00:10:01.564Z,7.65
2022-11-15T00:11:05.056Z,7.72
2022-11-15T00:12:07.723Z,7.55
2022-11-15T00:13:11.182Z,8.00
2022-11-15T00:14:13.717Z,7.88
2022-11-15T00:15:15.444Z,7.65
2022-11-15T00:16:19.435Z,8.13
2022-11-15T00:17:21.074Z,7.45
2022-11-15T00:18:23.597Z,7.82
2022-11-15T00:19:26.443Z,7.20
2022-11-15T00:20:28.206Z,7.28
2022-11-15T00:21:30.866Z,8.35
2022-11-15T00:22:33.176Z,7.25
2022-11-15T00:23:36.167Z,7.88
2022-11-15T00:24:37.895Z,7.38
2022-11-15T00:25:40.676Z,7.05
2022-11-15T00:26:42.268Z,8.13
2022-11-15T00:27:46.431Z,7.47
2022-11-15T00:28:48.179Z,7.57
2022-11-15T00:29:50.692Z,7.65
2022-11-15T00:30:52.614Z,7.18
2022-11-15T00:31:56.477Z,8.10
2022-11-15T00:32:58.076Z,7.78
2022-11-15T00:34:00.674Z,7.68
2022-11-15T00:35:02.228Z,7.57
2022-11-15T00:36:06.207Z,7.70
2022-11-15T00:37:07.894Z,8.35
2022-11-15T00:38:10.784Z,7.45
2022-11-15T00:39:12.449Z,7.40
2022-11-15T00:40:15.677Z,7.65
2022-11-15T00:41:17.328Z,7.93
2022-11-15T00:42:19.874Z,7.25
2022-11-15T00:43:21.421Z,7.53
2022-11-15T00:44:23.976Z,7.07
2022-11-15T00:45:26.298Z,8.35
2022-11-15T00:46:28.778Z,7.65
2022-11-15T00:47:31.720Z,8.02
2022-11-15T00:48:34.363Z,7.22
2022-11-15T00:49:35.928Z,7.15
2022-11-15T00:50:38.456Z,7.22
2022-11-15T00:51:40.118Z,7.18
2022-11-15T00:52:42.716Z,7.38
2022-11-15T00:53:44.307Z,7.68
2022-11-15T00:54:46.850Z,6.75
2022-11-15T00:55:48.398Z,7.18
2022-11-15T00:56:50.922Z,7.00
2022-11-15T00:57:52.446Z,7.35
2022-11-15T00:58:55.082Z,7.43
2022-11-15T00:59:56.746Z,7.55
2022-11-15T01:01:07.943Z,7.53
2022-11-15T01:02:09.748Z,7.70
2022-11-15T01:03:13.578Z,7.50
2022-11-15T01:04:16.125Z,7.32
2022-11-15T01:05:17.926Z,6.78
2022-11-15T01:06:20.537Z,7.70
2022-11-15T01:07:22.105Z,7.85
2022-11-15T01:08:25.988Z,7.30
2022-11-15T01:09:27.741Z,6.93
2022-11-15T01:10:30.264Z,7.55
2022-11-15T01:11:31.867Z,7.13
2022-11-15T01:12:34.441Z,7.38
2022-11-15T01:13:36.974Z,6.80
2022-11-15T01:14:39.560Z,6.68
2022-11-15T01:15:41.601Z,7.75
2022-11-15T01:16:44.170Z,7.68
2022-11-15T01:17:45.927Z,6.75
2022-11-15T01:18:49.830Z,7.03
2022-11-15T01:19:51.421Z,7.53
2022-11-15T01:20:53.928Z,7.32
2022-11-15T01:21:55.536Z,7.18
2022-11-15T01:22:58.028Z,7.72
2022-11-15T01:23:59.703Z,7.15
2022-11-15T01:25:02.356Z,7.25
2022-11-15T01:26:05.628Z,7.13
2022-11-15T01:27:08.374Z,7.43
2022-11-15T01:28:10.109Z,7.00
2022-11-15T01:29:12.657Z,7.00
2022-11-15T01:30:14.313Z,7.55
2022-11-15T01:31:19.365Z,7.35
2022-11-15T01:32:20.928Z,7.43
2022-11-15T01:33:23.497Z,6.88
2022-11-15T01:34:26.656Z,6.78
2022-11-15T01:35:29.290Z,6.82
2022-11-15T01:36:31.431Z,7.00
2022-11-15T01:37:34.033Z,6.43
2022-11-15T01:38:35.790Z,7.18
2022-11-15T01:39:38.312Z,7.28
2022-11-15T01:40:39.949Z,7.47
2022-11-15T01:41:42.559Z,7.25
2022-11-15T01:42:44.154Z,8.00
2022-11-15T01:43:48.476Z,6.72
2022-11-15T01:44:51.636Z,6.47
2022-11-15T01:45:58.750Z,7.03
2022-11-15T01:47:03.246Z,7.47
2022-11-15T01:48:06.656Z,6.85
2022-11-15T01:49:14.286Z,6.90
2022-11-15T01:50:20.975Z,7.30
2022-11-15T01:51:25.387Z,7.30
2022-11-15T01:52:30.123Z,7.60
2022-11-15T01:53:33.359Z,6.90
2022-11-15T01:54:36.204Z,7.57
2022-11-15T01:55:38.281Z,6.75
2022-11-15T01:56:48.437Z,6.60
2022-11-15T01:57:54.063Z,7.28
2022-11-15T01:58:58.721Z,6.25
2022-11-15T02:00:01.464Z,7.85
2022-11-15T02:01:04.070Z,6.93
2022-11-15T02:02:05.829Z,7.05
2022-11-15T02:03:08.450Z,7.03
2022-11-15T02:04:13.513Z,7.97
2022-11-15T02:05:16.100Z,7.25
2022-11-15T02:06:19.638Z,7.18
2022-11-15T02:07:23.291Z,7.75
2022-11-15T02:08:25.011Z,7.20
2022-11-15T02:09:27.634Z,7.28
2022-11-15T02:10:29.607Z,7.13
2022-11-15T02:11:32.334Z,6.45
2022-11-15T02:12:34.337Z,7.22
2022-11-15T02:13:39.761Z,7.30
2022-11-15T02:14:41.728Z,7.28
2022-11-15T02:15:51.523Z,7.75
2022-11-15T02:16:59.273Z,7.10
2022-11-15T02:18:12.604Z,7.90
2022-11-15T02:19:28.257Z,7.70
2022-11-15T02:20:54.941Z,7.22
2022-11-15T02:22:06.233Z,6.85
2022-11-15T02:23:23.940Z,7.03
2022-11-15T02:24:58.414Z,7.07
2022-11-15T02:26:12.924Z,6.93
2022-11-15T02:27:56.913Z,6.93
2022-11-15T02:29:02.967Z,6.43
2022-11-15T02:30:21.962Z,6.88
2022-11-15T02:31:27.577Z,6.80
2022-11-15T02:32:36.925Z,6.95
2022-11-15T02:33:43.926Z,6.43
2022-11-15T02:34:52.777Z,6.95
2022-11-15T02:35:59.417Z,7.68
2022-11-15T02:37:05.907Z,6.78
2022-11-15T02:38:09.649Z,6.78
2022-11-15T02:39:17.286Z,6.72
2022-11-15T02:40:24.488Z,7.50
2022-11-15T02:41:32.407Z,7.00
2022-11-15T02:42:55.883Z,7.03
2022-11-15T02:44:00.788Z,6.70
2022-11-15T02:45:06.070Z,7.50
2022-11-15T02:46:14.775Z,6.80
2022-11-15T02:47:17.778Z,7.30
2022-11-15T02:48:20.288Z,7.55
2022-11-15T02:49:23.667Z,6.53
2022-11-15T02:50:27.263Z,7.18
2022-11-15T02:51:29.821Z,6.88
2022-11-15T02:52:31.383Z,7.10
2022-11-15T02:53:34.142Z,7.75
2022-11-15T02:54:36.262Z,7.85
2022-11-15T02:55:40.726Z,7.20
2022-11-15T02:56:42.938Z,7.82
2022-11-15T02:57:51.709Z,7.45
2022-11-15T02:59:05.750Z,7.47
2022-11-15T03:00:10.373Z,7.18
2022-11-15T03:01:19.362Z,7.07
2022-11-15T03:02:30.729Z,7.68
2022-11-15T03:03:43.543Z,7.60
2022-11-15T03:04:48.031Z,7.32
2022-11-15T03:05:54.948Z,7.97
2022-11-15T03:07:02.836Z,6.78
2022-11-15T03:08:09.518Z,7.38
2022-11-15T03:09:17.487Z,8.10
2022-11-15T03:10:23.879Z,7.28
2022-11-15T03:11:26.693Z,6.70
2022-11-15T03:12:34.235Z,7.80
2022-11-15T03:13:39.650Z,6.95
2022-11-15T03:14:48.239Z,7.40
2022-11-15T03:15:56.192Z,7.88
2022-11-15T03:17:05.317Z,7.65
2022-11-15T03:18:11.625Z,7.75
2022-11-15T03:19:16.141Z,6.60
2022-11-15T03:20:18.747Z,7.22
2022-11-15T03:21:22.388Z,8.20
2022-11-15T03:22:25.571Z,7.90
2022-11-15T03:23:28.645Z,6.88
2022-11-15T03:24:31.825Z,6.75
2022-11-15T03:25:35.743Z,6.35
2022-11-15T03:26:39.595Z,7.65
2022-11-15T03:27:46.180Z,7.43
2022-11-15T03:28:51.853Z,7.68
2022-11-15T03:29:57.245Z,7.20
2022-11-15T03:31:00.280Z,7.03
2022-11-15T03:32:07.158Z,7.60
2022-11-15T03:33:09.659Z,7.18
2022-11-15T03:34:17.804Z,7.38
2022-11-15T03:35:22.637Z,7.40
2022-11-15T03:36:25.795Z,7.47
2022-11-15T03:37:32.849Z,7.00
2022-11-15T03:38:35.981Z,6.95
2022-11-15T03:39:38.695Z,7.28
2022-11-15T03:40:41.524Z,7.70
2022-11-15T03:41:48.344Z,6.90
2022-11-15T03:42:56.695Z,7.68
2022-11-15T03:44:04.161Z,6.57
2022-11-15T03:45:15.170Z,8.05
2022-11-15T03:46:21.019Z,6.70
2022-11-15T03:47:29.149Z,6.68
2022-11-15T03:48:34.819Z,8.05
2022-11-15T03:49:40.130Z,7.68
2022-11-15T03:50:42.877Z,7.75
2022-11-15T03:51:45.649Z,7.40
2022-11-15T03:52:48.712Z,7.40
2022-11-15T03:53:51.244Z,6.47
2022-11-15T03:54:54.883Z,7.55
2022-11-15T03:55:57.395Z,7.38
2022-11-15T03:56:58.976Z,6.80
2022-11-15T03:58:02.796Z,7.20
2022-11-15T03:59:04.369Z,6.60
2022-11-15T04:00:08.125Z,6.30
2022-11-15T04:01:09.846Z,6.45
2022-11-15T04:02:12.861Z,6.32
2022-11-15T04:03:15.784Z,7.13
2022-11-15T04:04:18.341Z,7.45
2022-11-15T04:05:20.068Z,6.53
2022-11-15T04:06:22.727Z,7.03
2022-11-15T04:07:24.317Z,7.10
2022-11-15T04:08:27.173Z,7.45
2022-11-15T04:09:28.777Z,7.15
2022-11-15T04:10:31.401Z,6.72
2022-11-15T04:11:33.095Z,7.05
2022-11-15T04:12:37.390Z,7.32
2022-11-15T04:13:38.952Z,7.35
2022-11-15T04:15:01.544Z,6.55
2022-11-15T04:16:03.287Z,7.60
2022-11-15T04:17:05.837Z,6.78
2022-11-15T04:18:07.464Z,6.40
2022-11-15T04:19:29.517Z,7.43
2022-11-15T04:20:50.231Z,6.45
2022-11-15T04:22:10.644Z,6.70
2022-11-15T04:23:32.663Z,6.60
2022-11-15T04:24:35.413Z,6.45
2022-11-15T04:25:36.986Z,6.80
2022-11-15T04:26:39.669Z,8.13
2022-11-15T04:27:41.331Z,7.32
2022-11-15T04:28:58.033Z,6.30
2022-11-15T04:30:00.637Z,6.85
2022-11-15T04:31:02.189Z,6.95
2022-11-15T04:32:05.496Z,6.85
2022-11-15T04:33:07.040Z,6.95
2022-11-15T04:34:10.960Z,7.03
2022-11-15T04:35:12.847Z,7.65
2022-11-15T04:36:33.350Z,6.78
2022-11-15T04:37:35.932Z,6.85
2022-11-15T04:38:37.602Z,6.47
2022-11-15T04:39:40.298Z,7.28
2022-11-15T04:40:41.975Z,7.38
2022-11-15T04:41:44.602Z,6.97
2022-11-15T04:42:46.188Z,7.03
2022-11-15T04:43:48.691Z,6.57
2022-11-15T04:44:50.267Z,6.75
2022-11-15T04:45:52.845Z,6.63
2022-11-15T04:46:54.394Z,7.25
2022-11-15T04:47:56.881Z,6.32
2022-11-15T04:48:59.380Z,6.88
2022-11-15T04:50:03.497Z,6.47
2022-11-15T04:51:05.413Z,7.25
2022-11-15T04:52:07.938Z,6.90
2022-11-15T04:53:09.613Z,6.53
2022-11-15T04:54:12.387Z,7.10
2022-11-15T04:55:15.451Z,6.70
2022-11-15T04:56:17.095Z,6.63
2022-11-15T04:57:19.898Z,6.07
2022-11-15T04:58:21.476Z,6.82
2022-11-15T04:59:24.020Z,5.90
2022-11-15T05:00:25.659Z,6.45
2022-11-15T05:01:28.459Z,6.13
2022-11-15T05:02:50.127Z,6.32
2022-11-15T05:04:10.534Z,5.20
2022-11-15T05:05:13.597Z,6.10
2022-11-15T05:06:16.111Z,5.63
2022-11-15T05:07:17.679Z,6.28
2022-11-15T05:08:20.234Z,6.40
2022-11-15T05:09:22.057Z,6.60
2022-11-15T05:10:24.694Z,5.88
2022-11-15T05:11:27.751Z,6.53
2022-11-15T05:12:30.289Z,5.72
2022-11-15T05:13:32.160Z,6.10
2022-11-15T05:14:34.937Z,6.10
2022-11-15T05:15:36.617Z,6.30
2022-11-15T05:16:39.423Z,6.20
2022-11-15T05:17:40.966Z,5.53
2022-11-15T05:18:43.525Z,6.13
2022-11-15T05:19:45.599Z,6.13
2022-11-15T05:20:49.485Z,5.88
2022-11-15T05:21:51.006Z,5.90
2022-11-15T05:22:54.527Z,5.85
2022-11-15T05:23:56.114Z,6.25
2022-11-15T05:24:58.697Z,7.38
2022-11-15T05:26:03.858Z,6.20
2022-11-15T05:27:09.037Z,6.40
2022-11-15T05:28:11.017Z,5.90
2022-11-15T05:29:13.566Z,6.45
2022-11-15T05:30:16.194Z,6.10
2022-11-15T05:31:18.760Z,6.38
2022-11-15T05:32:20.411Z,5.95
2022-11-15T05:33:23.034Z,5.70
2022-11-15T05:34:26.531Z,6.30
2022-11-15T05:35:33.416Z,6.07
2022-11-15T05:36:38.657Z,5.97
2022-11-15T05:37:41.282Z,5.75
2022-11-15T05:38:43.015Z,6.68
2022-11-15T05:39:45.783Z,6.45
2022-11-15T05:40:47.538Z,6.68
2022-11-15T05:41:53.442Z,7.07
2022-11-15T05:42:55.103Z,6.50
2022-11-15T05:43:58.005Z,6.68
2022-11-15T05:45:01.942Z,6.28
2022-11-15T05:46:04.112Z,6.05
2022-11-15T05:47:08.840Z,6.45
2022-11-15T05:48:11.098Z,7.10
2022-11-15T05:49:17.165Z,7.03
2022-11-15T05:50:19.681Z,6.93
2022-11-15T05:51:23.172Z,5.80
2022-11-15T05:52:29.649Z,7.18
2022-11-15T05:53:33.059Z,6.75
2022-11-15T05:54:35.603Z,6.80
2022-11-15T05:55:39.635Z,7.05
2022-11-15T05:56:42.323Z,6.60
2022-11-15T05:57:44.067Z,6.53
2022-11-15T05:58:46.684Z,6.63
2022-11-15T05:59:49.584Z,7.47
2022-11-15T06:00:51.268Z,6.60
2022-11-15T06:01:54.040Z,6.30
2022-11-15T06:02:56.700Z,6.78
2022-11-15T06:03:58.282Z,7.80
2022-11-15T06:05:00.807Z,6.90
2022-11-15T06:06:02.488Z,7.40
2022-11-15T06:07:05.157Z,6.65
2022-11-15T06:08:08.250Z,6.95
2022-11-15T06:09:10.842Z,7.18
2022-11-15T06:10:12.494Z,6.85
2022-11-15T06:11:15.130Z,7.00
2022-11-15T06:12:16.676Z,6.85
2022-11-15T06:13:19.241Z,7.72
2022-11-15T06:14:20.914Z,6.68
2022-11-15T06:15:23.548Z,6.22
2022-11-15T06:16:26.160Z,7.15
2022-11-15T06:17:27.829Z,7.57
2022-11-15T06:18:30.389Z,6.55
2022-11-15T06:19:33.947Z,6.88
2022-11-15T06:20:36.537Z,7.00
2022-11-15T06:21:38.216Z,6.63
2022-11-15T06:22:40.750Z,7.00
2022-11-15T06:23:43.955Z,7.20
2022-11-15T06:24:46.687Z,6.22
2022-11-15T06:25:48.283Z,6.85
2022-11-15T06:26:50.769Z,7.90
2022-11-15T06:27:52.852Z,6.50
2022-11-15T06:28:55.385Z,7.40
2022-11-15T06:29:57.157Z,7.43
2022-11-15T06:31:04.576Z,6.90
2022-11-15T06:32:07.185Z,6.90
2022-11-15T06:33:09.791Z,6.70
2022-11-15T06:34:12.685Z,7.75
2022-11-15T06:35:14.862Z,7.85
2022-11-15T06:36:22.015Z,6.82
2022-11-15T06:37:23.681Z,7.72
2022-11-15T06:38:26.209Z,7.03
2022-11-15T06:39:30.078Z,6.82
2022-11-15T06:40:31.642Z,8.90
2022-11-15T06:41:35.850Z,6.75
2022-11-15T06:42:37.471Z,6.68
2022-11-15T06:43:40.611Z,6.75
2022-11-15T06:44:42.196Z,6.57
2022-11-15T06:45:44.769Z,6.03
2022-11-15T06:46:46.499Z,6.25
2022-11-15T06:47:49.606Z,6.32
2022-11-15T06:48:52.041Z,6.30
2022-11-15T06:49:54.753Z,6.13
2022-11-15T06:50:57.938Z,6.18
2022-11-15T06:52:00.496Z,6.22
2022-11-15T06:53:03.859Z,6.57
2022-11-15T06:54:06.752Z,6.93
2022-11-15T06:55:10.419Z,6.45
2022-11-15T06:56:13.707Z,6.60
2022-11-15T06:57:15.300Z,6.55
2022-11-15T06:58:17.932Z,6.45
2022-11-15T06:59:19.530Z,6.50
2022-11-15T07:00:23.219Z,5.95
2022-11-15T07:01:24.833Z,6.28
2022-11-15T07:02:27.502Z,6.18
2022-11-15T07:03:29.378Z,6.50
2022-11-15T07:04:32.311Z,6.43
2022-11-15T07:05:34.095Z,5.68
2022-11-15T07:06:36.709Z,5.70
2022-11-15T07:07:38.328Z,5.93
2022-11-15T07:08:42.577Z,5.82
2022-11-15T07:09:44.251Z,6.32
2022-11-15T07:10:48.280Z,6.97
2022-11-15T07:11:49.949Z,5.97
2022-11-15T07:12:52.580Z,5.85
2022-11-15T07:13:54.148Z,5.03
2022-11-15T07:14:56.732Z,6.55
2022-11-15T07:15:58.361Z,6.18
2022-11-15T07:17:00.974Z,6.53
2022-11-15T07:18:02.691Z,5.43
2022-11-15T07:19:05.536Z,6.30
2022-11-15T07:20:07.926Z,6.53
2022-11-15T07:21:12.008Z,5.63
2022-11-15T07:22:13.572Z,5.72
2022-11-15T07:23:16.152Z,5.32
2022-11-15T07:24:17.765Z,5.68
2022-11-15T07:25:20.261Z,5.10
2022-11-15T07:26:24.197Z,5.07
2022-11-15T07:27:25.980Z,6.22
2022-11-15T07:28:29.240Z,5.40
2022-11-15T07:29:31.018Z,4.95
2022-11-15T07:30:33.554Z,5.18
2022-11-15T07:31:35.143Z,5.07
2022-11-15T07:32:37.744Z,4.95
2022-11-15T07:33:40.354Z,6.00
2022-11-15T07:34:42.963Z,4.35
2022-11-15T07:35:47.353Z,4.97
2022-11-15T07:36:49.969Z,5.18
2022-11-15T07:37:56.974Z,4.82
2022-11-15T07:38:58.558Z,5.05
2022-11-15T07:40:01.045Z,4.80
2022-11-15T07:41:05.030Z,4.40
2022-11-15T07:42:26.355Z,4.88
2022-11-15T07:43:30.724Z,4.50
2022-11-15T07:44:32.493Z,4.25
2022-11-15T07:45:35.593Z,4.50
2022-11-15T07:46:38.437Z,4.10
2022-11-15T07:47:40.021Z,4.50
2022-11-15T07:48:45.102Z,4.38
2022-11-15T07:49:47.462Z,5.30
2022-11-15T07:50:50.181Z,4.40
2022-11-15T07:51:52.693Z,3.70
2022-11-15T07:52:56.959Z,4.43
2022-11-15T07:53:59.729Z,4.03
2022-11-15T07:55:02.260Z,4.20
2022-11-15T07:56:07.839Z,4.22
2022-11-15T07:57:11.078Z,4.25
2022-11-15T07:58:14.063Z,4.07
2022-11-15T07:59:15.639Z,4.50
2022-11-15T08:00:19.264Z,3.97
2022-11-15T08:01:21.917Z,4.43
2022-11-15T08:02:26.443Z,4.47
2022-11-15T08:03:32.892Z,4.20
2022-11-15T08:04:35.703Z,4.25
2022-11-15T08:05:38.726Z,4.35
2022-11-15T08:06:41.240Z,4.20
2022-11-15T08:07:42.786Z,3.75
2022-11-15T08:08:45.379Z,4.15
2022-11-15T08:09:46.940Z,3.58
2022-11-15T08:10:49.471Z,4.10
2022-11-15T08:11:52.150Z,3.20
2022-11-15T08:13:03.380Z,3.58
2022-11-15T08:14:05.944Z,3.45
2022-11-15T08:15:08.918Z,3.67
2022-11-15T08:16:12.920Z,3.60
2022-11-15T08:17:15.630Z,3.65
2022-11-15T08:18:17.842Z,3.30
2022-11-15T08:19:20.378Z,3.88
2022-11-15T08:20:22.177Z,3.35
2022-11-15T08:21:24.906Z,2.83
2022-11-15T08:22:27.432Z,3.10
2022-11-15T08:23:30.768Z,3.35
2022-11-15T08:24:33.659Z,3.05
2022-11-15T08:25:36.020Z,2.70
2022-11-15T08:26:38.682Z,3.15
2022-11-15T08:27:40.337Z,3.08
2022-11-15T08:28:44.474Z,2.90
2022-11-15T08:29:47.120Z,2.22
2022-11-15T08:30:49.771Z,2.80
2022-11-15T08:31:51.387Z,2.75
2022-11-15T08:32:54.979Z,2.67
2022-11-15T08:33:57.583Z,2.72
2022-11-15T08:34:59.180Z,2.50
2022-11-15T08:36:02.482Z,2.33
2022-11-15T08:37:04.046Z,2.80
2022-11-15T08:38:06.586Z,2.80
2022-11-15T08:39:12.335Z,2.67
2022-11-15T08:40:15.340Z,2.35
2022-11-15T08:41:24.054Z,2.85
2022-11-15T08:42:26.683Z,2.53
2022-11-15T08:43:29.704Z,2.17
2022-11-15T08:44:33.839Z,2.25
2022-11-15T08:45:37.557Z,2.47
2022-11-15T08:46:39.220Z,1.98
2022-11-15T08:47:41.746Z,2.28
2022-11-15T08:48:43.317Z,2.10
2022-11-15T08:49:45.871Z,2.22
2022-11-15T08:50:47.417Z,2.10
2022-11-15T08:51:50.007Z,2.35
2022-11-15T08:52:51.659Z,2.13
2022-11-15T08:53:54.273Z,2.05
2022-11-15T08:54:55.958Z,2.28
2022-11-15T08:55:58.560Z,1.80
2022-11-15T08:57:01.142Z,2.00
2022-11-15T08:58:03.801Z,2.25
2022-11-15T08:59:06.387Z,2.08
2022-11-15T09:00:12.322Z,2.20
2022-11-15T09:01:18.688Z,2.22
2022-11-15T09:02:21.641Z,2.17
2022-11-15T09:03:23.331Z,2.08
2022-11-15T09:04:25.926Z,2.33
2022-11-15T09:05:27.527Z,1.80
2022-11-15T09:06:30.141Z,1.88
2022-11-15T09:07:32.751Z,2.00
2022-11-15T09:08:50.587Z,1.50
2022-11-15T09:09:53.227Z,2.45
2022-11-15T09:10:54.846Z,1.95
2022-11-15T09:12:01.369Z,2.20
2022-11-15T09:13:05.310Z,1.70
2022-11-15T09:14:08.022Z,2.08
2022-11-15T09:15:11.437Z,1.58
2022-11-15T09:16:14.011Z,1.60
2022-11-15T09:17:21.690Z,2.08
2022-11-15T09:18:27.020Z,1.90
2022-11-15T09:19:29.598Z,1.70
2022-11-15T09:20:32.456Z,1.85
2022-11-15T09:21:35.225Z,1.90
2022-11-15T09:22:37.392Z,2.35
2022-11-15T09:23:40.221Z,1.95
2022-11-15T09:24:43.311Z,2.15
2022-11-15T09:25:44.865Z,1.80
2022-11-15T09:26:47.548Z,1.90
2022-11-15T09:27:49.315Z,1.42
2022-11-15T09:28:51.920Z,1.65
2022-11-15T09:29:54.689Z,1.70
2022-11-15T09:30:59.600Z,1.88
2022-11-15T09:32:02.129Z,1.52
2022-11-15T09:33:08.791Z,1.58
2022-11-15T09:34:12.405Z,1.52
2022-11-15T09:35:14.213Z,1.42
2022-11-15T09:36:17.774Z,1.23
2022-11-15T09:37:20.346Z,1.90
2022-11-15T09:38:22.958Z,1.90
2022-11-15T09:39:25.487Z,1.77
2022-11-15T09:40:27.321Z,1.20
2022-11-15T09:41:50.974Z,1.58
2022-11-15T09:43:05.022Z,1.38
2022-11-15T09:44:35.540Z,1.50
2022-11-15T09:45:43.563Z,1.67
2022-11-15T09:46:54.018Z,1.20
2022-11-15T09:48:07.234Z,1.40
2022-11-15T09:49:11.182Z,1.60
2022-11-15T09:50:16.028Z,1.40
2022-11-15T09:51:27.818Z,1.52
2022-11-15T09:52:30.403Z,1.63
2022-11-15T09:54:23.791Z,1.40
2022-11-15T09:54:59.702Z,1.30
2022-11-15T09:56:03.490Z,1.55
2022-11-15T09:57:15.955Z,1.60
2022-11-15T09:58:25.369Z,1.27
2022-11-15T09:59:48.861Z,1.42
2022-11-15T10:00:54.587Z,1.63
2022-11-15T10:02:05.091Z,1.40
2022-11-15T10:03:12.751Z,1.08
2022-11-15T10:04:15.897Z,1.10
2022-11-15T10:05:20.160Z,1.63
2022-11-15T10:06:25.967Z,1.40
2022-11-15T10:07:35.269Z,1.55
2022-11-15T10:08:53.493Z,1.23
2022-11-15T10:09:58.521Z,1.60
2022-11-15T10:11:36.208Z,1.17
2022-11-15T10:12:26.044Z,1.35
2022-11-15T10:13:30.972Z,1.52
2022-11-15T10:14:33.626Z,1.30
2022-11-15T10:15:36.270Z,1.23
2022-11-15T10:17:17.750Z,0.93
2022-11-15T10:18:29.390Z,1.25
2022-11-15T10:19:36.284Z,1.20
2022-11-15T10:20:47.129Z,1.10
2022-11-15T10:21:57.815Z,1.25
2022-11-15T10:23:02.519Z,1.02
2022-11-15T10:24:11.894Z,1.38
2022-11-15T10:25:20.461Z,1.10
2022-11-15T10:26:23.241Z,1.13
2022-11-15T10:27:25.831Z,0.98
2022-11-15T10:28:30.873Z,1.27
2022-11-15T10:29:32.832Z,1.20
2022-11-15T10:30:37.673Z,1.13
2022-11-15T10:31:43.363Z,1.38
2022-11-15T10:32:47.658Z,1.00
2022-11-15T10:33:51.661Z,1.40
2022-11-15T10:34:53.438Z,1.17
2022-11-15T10:36:19.507Z,1.30
2022-11-15T10:37:29.977Z,1.40
2022-11-15T10:38:32.896Z,1.13
2022-11-15T10:39:36.101Z,1.20
2022-11-15T10:40:39.373Z,1.10
2022-11-15T10:41:44.755Z,1.00
2022-11-15T10:42:47.601Z,0.85
2022-11-15T10:44:10.872Z,1.00
2022-11-15T10:45:26.309Z,0.90
2022-11-15T10:46:46.053Z,1.00
2022-11-15T10:47:49.442Z,1.10
2022-11-15T10:48:52.393Z,0.90
2022-11-15T10:50:06.795Z,1.08
2022-11-15T10:51:23.382Z,0.70
2022-11-15T10:52:25.485Z,1.08
2022-11-15T10:53:32.665Z,1.15
2022-11-15T10:54:36.312Z,0.82
2022-11-15T10:55:39.752Z,1.00
2022-11-15T10:56:41.564Z,0.80
2022-11-15T10:57:51.270Z,1.00
2022-11-15T10:58:55.817Z,1.02
2022-11-15T11:00:00.612Z,1.10
2022-11-15T11:01:14.640Z,1.25
2022-11-15T11:02:31.773Z,1.00
2022-11-15T11:03:40.123Z,1.17
2022-11-15T11:04:53.273Z,1.00
2022-11-15T11:06:06.298Z,1.02
2022-11-15T11:07:22.985Z,1.00
2022-11-15T11:08:25.385Z,0.80
2022-11-15T11:09:32.964Z,0.82
2022-11-15T11:10:52.330Z,1.13
2022-11-15T11:11:56.831Z,1.10
2022-11-15T11:13:14.811Z,1.13
2022-11-15T11:14:19.889Z,1.15
2022-11-15T11:15:23.793Z,0.82
2022-11-15T11:16:44.573Z,0.88
2022-11-15T11:17:57.070Z,0.80
2022-11-15T11:19:07.555Z,0.95
2022-11-15T11:20:17.550Z,1.27
2022-11-15T11:21:31.040Z,0.85
2022-11-15T11:22:41.783Z,0.90
2022-11-15T11:23:50.089Z,1.15
2022-11-15T11:25:02.829Z,1.00
2022-11-15T11:26:17.935Z,1.20
2022-11-15T11:27:39.813Z,0.95
2022-11-15T11:28:47.689Z,0.85
2022-11-15T11:30:00.623Z,0.90
2022-11-15T11:31:15.328Z,0.90
2022-11-15T11:32:55.258Z,0.90
2022-11-15T11:34:05.723Z,0.77
2022-11-15T11:35:14.648Z,0.90
2022-11-15T11:36:24.339Z,0.70
2022-11-15T11:37:32.827Z,0.90
2022-11-15T11:38:44.795Z,0.80
2022-11-15T11:39:52.970Z,0.95
2022-11-15T11:41:03.051Z,0.90
2022-11-15T11:42:11.863Z,0.98
2022-11-15T11:43:21.198Z,0.93
2022-11-15T11:44:34.130Z,0.98
2022-11-15T11:45:55.869Z,0.80
2022-11-15T11:47:02.516Z,0.80
2022-11-15T11:48:11.281Z,0.77
2022-11-15T11:49:18.224Z,0.90
2022-11-15T11:50:23.626Z,1.33
2022-11-15T11:51:28.396Z,0.90
2022-11-15T11:52:35.387Z,0.80
2022-11-15T11:53:42.087Z,0.85
2022-11-15T11:54:51.030Z,0.88
2022-11-15T11:55:54.640Z,1.20
2022-11-15T11:56:59.400Z,0.73
2022-11-15T11:58:06.899Z,0.75
2022-11-15T11:59:13.161Z,0.90
2022-11-15T12:00:20.413Z,0.70
2022-11-15T12:01:25.003Z,1.10
2022-11-15T12:02:30.926Z,0.90
2022-11-15T12:03:42.054Z,1.00
2022-11-15T12:04:47.492Z,0.60
2022-11-15T12:05:55.215Z,0.63
2022-11-15T12:07:00.061Z,0.88
2022-11-15T12:08:06.941Z,0.73
2022-11-15T12:09:15.649Z,1.15
2022-11-15T12:10:23.030Z,0.70
2022-11-15T12:11:30.532Z,0.82
2022-11-15T12:12:38.416Z,0.98
2022-11-15T12:13:41.126Z,0.90
2022-11-15T12:14:46.613Z,0.70
2022-11-15T12:15:54.704Z,0.93
2022-11-15T12:16:57.263Z,1.00
2022-11-15T12:18:00.440Z,0.80
2022-11-15T12:19:05.690Z,0.80
2022-11-15T12:20:16.216Z,0.88
2022-11-15T12:21:28.469Z,0.90
2022-11-15T12:22:39.184Z,0.93
2022-11-15T12:23:44.032Z,0.85
2022-11-15T12:24:52.267Z,0.80
2022-11-15T12:25:57.590Z,0.95
2022-11-15T12:27:03.058Z,0.88
2022-11-15T12:28:10.747Z,1.10
2022-11-15T12:29:17.396Z,0.70
2022-11-15T12:30:22.988Z,0.70
2022-11-15T12:31:32.200Z,0.73
2022-11-15T12:32:37.115Z,1.10
2022-11-15T12:33:42.801Z,0.85
2022-11-15T12:34:47.436Z,0.93
2022-11-15T12:36:00.751Z,1.20
2022-11-15T12:37:48.371Z,1.00
2022-11-15T12:38:57.043Z,0.93
2022-11-15T12:40:19.244Z,0.88
2022-11-15T12:41:22.721Z,0.90
2022-11-15T12:42:41.288Z,0.80
2022-11-15T12:43:44.767Z,0.80
2022-11-15T12:45:00.992Z,0.77
2022-11-15T12:46:06.752Z,0.80
2022-11-15T12:47:25.028Z,0.85
2022-11-15T12:48:57.839Z,0.68
2022-11-15T12:50:00.493Z,1.73
2022-11-15T12:51:02.412Z,2.03
2022-11-15T12:52:08.095Z,0.75
2022-11-15T12:53:29.822Z,0.93
2022-11-15T12:55:09.223Z,0.65
2022-11-15T12:56:24.761Z,0.80
2022-11-15T12:57:39.588Z,0.80
2022-11-15T12:58:46.698Z,0.90
2022-11-15T12:59:51.073Z,0.75
2022-11-15T13:00:53.652Z,0.90
2022-11-15T13:02:01.472Z,0.80
2022-11-15T13:03:24.183Z,1.08
2022-11-15T13:04:29.287Z,0.82
2022-11-15T13:05:55.277Z,1.00
2022-11-15T13:06:59.593Z,0.93
2022-11-15T13:08:02.692Z,1.08
2022-11-15T13:09:05.315Z,0.80
2022-11-15T13:10:32.341Z,0.80
2022-11-15T13:11:45.560Z,0.98
2022-11-15T13:12:57.029Z,0.80
2022-11-15T13:13:58.653Z,0.80
2022-11-15T13:15:01.888Z,0.95
2022-11-15T13:16:04.657Z,0.80
2022-11-15T13:17:18.244Z,0.80
2022-11-15T13:18:32.444Z,0.70
2022-11-15T13:19:37.972Z,0.65
2022-11-15T13:20:40.638Z,0.70
2022-11-15T13:22:04.033Z,0.73
2022-11-15T13:23:12.540Z,0.80
2022-11-15T13:24:15.501Z,0.90
2022-11-15T13:25:21.592Z,0.90
2022-11-15T13:26:25.210Z,0.80
2022-11-15T13:27:26.841Z,0.73
2022-11-15T13:28:34.654Z,0.65
2022-11-15T13:29:37.510Z,0.80
2022-11-15T13:30:39.187Z,0.85
2022-11-15T13:31:44.480Z,0.80
2022-11-15T13:32:46.208Z,0.70
2022-11-15T13:33:48.795Z,0.52
2022-11-15T13:34:53.809Z,0.60
2022-11-15T13:35:57.980Z,0.75
2022-11-15T13:37:01.968Z,0.75
2022-11-15T13:38:05.178Z,0.73
2022-11-15T13:39:16.782Z,0.70
2022-11-15T13:40:24.700Z,0.63
2022-11-15T13:41:28.721Z,0.77
2022-11-15T13:42:30.382Z,0.77
2022-11-15T13:43:36.831Z,0.93
2022-11-15T13:44:39.402Z,0.70
2022-11-15T13:45:40.986Z,0.77
2022-11-15T13:46:44.305Z,0.65
2022-11-15T13:47:45.950Z,0.60
2022-11-15T13:48:53.801Z,0.70
2022-11-15T13:49:58.849Z,0.70
2022-11-15T13:51:00.628Z,0.80
2022-11-15T13:52:06.406Z,0.70
2022-11-15T13:53:09.033Z,0.90
2022-11-15T13:54:19.395Z,0.77
2022-11-15T13:55:23.860Z,0.70
2022-11-15T13:56:27.705Z,0.90
2022-11-15T13:57:31.423Z,0.80
2022-11-15T13:58:35.027Z,0.80
2022-11-15T13:59:45.596Z,0.50
2022-11-15T14:00:48.257Z,0.77
2022-11-15T14:01:51.963Z,0.55
2022-11-15T14:02:54.648Z,0.98
2022-11-15T14:03:59.285Z,0.77
2022-11-15T14:05:05.548Z,0.52
2022-11-15T14:06:12.850Z,0.60
2022-11-15T14:07:19.915Z,0.85
2022-11-15T14:08:24.422Z,0.65
2022-11-15T14:09:39.423Z,0.57
2022-11-15T14:10:41.154Z,0.70
2022-11-15T14:11:52.151Z,0.85
2022-11-15T14:12:54.765Z,0.75
2022-11-15T14:14:13.796Z,0.98
2022-11-15T14:15:27.061Z,0.75
2022-11-15T14:16:35.504Z,0.50
2022-11-15T14:17:45.771Z,1.15
2022-11-15T14:18:52.665Z,0.80
2022-11-15T14:19:55.224Z,0.60
2022-11-15T14:21:06.720Z,0.60
2022-11-15T14:22:11.161Z,0.90
2022-11-15T14:23:22.074Z,0.60
2022-11-15T14:24:24.069Z,0.73
2022-11-15T14:25:28.887Z,0.60
2022-11-15T14:26:32.999Z,0.70
2022-11-15T14:27:35.854Z,0.70
2022-11-15T14:28:40.243Z,1.08
2022-11-15T14:29:41.834Z,0.65
2022-11-15T14:30:48.063Z,0.65
2022-11-15T14:31:50.739Z,0.60